createdAt,value
2023-03-16T00:00:09.780Z,73.66
2023-03-16T00:02:31.251Z,72.76
2023-03-16T00:04:52.740Z,72.85
2023-03-16T00:07:14.828Z,72.56
2023-03-16T00:09:41.056Z,73.48
2023-03-16T00:12:03.302Z,72.92
2023-03-16T00:14:25.979Z,72.49
2023-03-16T00:16:47.504Z,72.73
2023-03-16T00:19:08.981Z,72.41
2023-03-16T00:21:32.121Z,73.41
2023-03-16T00:23:53.619Z,72.96
2023-03-16T00:26:15.124Z,73.86
2023-03-16T00:28:36.973Z,73.86
2023-03-16T00:30:59.271Z,73.88
2023-03-16T00:33:20.858Z,73.14
2023-03-16T00:35:49.997Z,73.01
2023-03-16T00:38:11.911Z,73.10
2023-03-16T00:40:33.954Z,74.64
2023-03-16T00:42:55.683Z,74.12
2023-03-16T00:45:17.221Z,73.41
2023-03-16T00:47:38.720Z,72.89
2023-03-16T00:50:01.267Z,72.95
2023-03-16T00:52:23.624Z,73.08
2023-03-16T00:54:47.060Z,74.56
2023-03-16T00:57:09.301Z,73.97
2023-03-16T00:59:31.311Z,73.10
2023-03-16T01:01:53.885Z,74.96
2023-03-16T01:04:15.416Z,75.24
2023-03-16T01:06:38.822Z,74.01
2023-03-16T01:09:02.692Z,73.70
2023-03-16T01:11:24.237Z,73.55
2023-03-16T01:13:47.352Z,73.28
2023-03-16T01:16:09.965Z,73.19
2023-03-16T01:18:34.812Z,73.25
2023-03-16T01:20:56.294Z,72.92
2023-03-16T01:23:18.386Z,72.91
2023-03-16T01:25:41.276Z,72.81
2023-03-16T01:28:03.645Z,72.78
2023-03-16T01:30:25.521Z,73.11
2023-03-16T01:32:47.334Z,74.00
2023-03-16T01:35:09.358Z,73.77
2023-03-16T01:37:31.711Z,73.70
2023-03-16T01:39:53.242Z,73.96
2023-03-16T01:42:14.812Z,73.82
2023-03-16T01:44:56.647Z,73.17
2023-03-16T01:47:18.506Z,73.46
2023-03-16T01:49:40.033Z,73.31
2023-03-16T01:52:07.416Z,73.17
2023-03-16T01:54:48.445Z,73.12
2023-03-16T01:57:21.996Z,72.95
2023-03-16T01:59:50.559Z,73.27
2023-03-16T02:02:15.468Z,72.91
2023-03-16T02:04:51.126Z,72.47
2023-03-16T02:07:13.223Z,72.77
2023-03-16T02:09:39.074Z,72.71
2023-03-16T02:12:01.368Z,73.22
2023-03-16T02:14:24.907Z,73.41
2023-03-16T02:16:47.574Z,73.86
2023-03-16T02:19:16.192Z,73.56
2023-03-16T02:21:45.643Z,74.29
2023-03-16T02:24:07.335Z,75.38
2023-03-16T02:26:51.497Z,75.36
2023-03-16T02:29:48.981Z,75.12
2023-03-16T02:32:11.854Z,74.45
2023-03-16T02:34:33.417Z,74.27
2023-03-16T02:36:57.007Z,73.97
2023-03-16T02:39:18.888Z,73.98
2023-03-16T02:41:41.811Z,73.66
2023-03-16T02:44:26.502Z,73.61
2023-03-16T02:46:48.480Z,74.04
2023-03-16T02:49:31.876Z,76.81
2023-03-16T02:51:53.659Z,75.50
2023-03-16T02:54:15.156Z,75.82
2023-03-16T02:56:36.702Z,75.46
2023-03-16T02:58:58.247Z,75.17
2023-03-16T03:01:19.784Z,74.90
2023-03-16T03:03:41.255Z,74.73
2023-03-16T03:06:02.788Z,74.78
2023-03-16T03:08:24.322Z,74.01
2023-03-16T03:10:46.252Z,74.41
2023-03-16T03:13:07.818Z,74.55
2023-03-16T03:15:29.330Z,74.89
2023-03-16T03:17:50.825Z,75.59
2023-03-16T03:20:19.958Z,75.60
2023-03-16T03:22:42.023Z,75.53
2023-03-16T03:25:03.506Z,77.30
2023-03-16T03:27:25.041Z,76.24
2023-03-16T03:29:46.569Z,75.51
2023-03-16T03:32:08.365Z,74.76
2023-03-16T03:34:31.367Z,74.05
2023-03-16T03:36:53.684Z,75.08
2023-03-16T03:39:15.139Z,74.85
2023-03-16T03:41:36.794Z,75.53
2023-03-16T03:43:59.901Z,75.23
2023-03-16T03:46:21.553Z,75.35
2023-03-16T03:48:43.069Z,77.07
2023-03-16T03:51:05.680Z,76.56
2023-03-16T03:53:27.129Z,77.89
2023-03-16T03:55:49.938Z,77.34
2023-03-16T03:58:12.201Z,78.02
2023-03-16T04:00:34.009Z,77.12
2023-03-16T04:02:55.616Z,76.31
2023-03-16T04:05:17.307Z,76.17
2023-03-16T04:07:39.144Z,76.55
2023-03-16T04:10:01.078Z,76.92
2023-03-16T04:12:23.170Z,76.51
2023-03-16T04:14:44.746Z,76.36
2023-03-16T04:17:06.172Z,76.14
2023-03-16T04:19:28.615Z,75.96
2023-03-16T04:21:50.586Z,76.42
2023-03-16T04:24:14.790Z,76.43
2023-03-16T04:26:36.326Z,76.55
2023-03-16T04:28:58.633Z,77.20
2023-03-16T04:31:20.206Z,78.02
2023-03-16T04:33:42.352Z,76.61
2023-03-16T04:36:05.668Z,77.60
2023-03-16T04:38:27.111Z,76.25
2023-03-16T04:40:48.508Z,76.93
2023-03-16T04:43:09.930Z,77.83
2023-03-16T04:45:32.886Z,78.10
2023-03-16T04:47:54.313Z,77.53
2023-03-16T04:50:15.941Z,77.62
2023-03-16T04:52:37.837Z,79.32
2023-03-16T04:54:59.286Z,78.86
2023-03-16T04:57:20.813Z,78.23
2023-03-16T04:59:42.353Z,79.53
2023-03-16T05:02:04.122Z,80.09
2023-03-16T05:04:25.558Z,79.61
2023-03-16T05:06:47.070Z,79.29
2023-03-16T05:09:08.933Z,78.29
2023-03-16T05:11:30.696Z,78.56
2023-03-16T05:13:52.285Z,78.32
2023-03-16T05:16:13.825Z,78.40
2023-03-16T05:18:35.368Z,80.85
2023-03-16T05:20:56.896Z,81.34
2023-03-16T05:23:18.334Z,82.65
2023-03-16T05:25:40.456Z,82.19
2023-03-16T05:28:02.100Z,83.14
2023-03-16T05:30:23.644Z,82.53
2023-03-16T05:32:45.812Z,84.54
2023-03-16T05:35:07.627Z,83.75
2023-03-16T05:37:29.823Z,83.79
2023-03-16T05:39:51.252Z,82.46
2023-03-16T05:42:12.714Z,86.23
2023-03-16T05:44:34.414Z,85.91
2023-03-16T05:46:56.058Z,83.74
2023-03-16T05:49:17.805Z,83.78
2023-03-16T05:51:39.270Z,85.40
2023-03-16T05:54:00.729Z,85.31
2023-03-16T05:56:24.808Z,84.99
2023-03-16T05:58:46.358Z,84.62
2023-03-16T06:01:09.577Z,83.36
2023-03-16T06:03:31.451Z,84.08
2023-03-16T06:05:53.511Z,83.86
2023-03-16T06:08:15.502Z,84.13
2023-03-16T06:10:36.993Z,85.08
2023-03-16T06:12:59.905Z,86.63
2023-03-16T06:15:25.076Z,87.19
2023-03-16T06:17:46.616Z,86.47
2023-03-16T06:20:11.389Z,86.44
2023-03-16T06:22:33.000Z,89.63
2023-03-16T06:24:54.453Z,88.43
2023-03-16T06:27:15.872Z,88.47
2023-03-16T06:29:37.438Z,88.60
2023-03-16T06:31:58.903Z,88.87
2023-03-16T06:34:20.916Z,91.04
2023-03-16T06:36:42.344Z,89.50
2023-03-16T06:39:04.540Z,91.52
2023-03-16T06:41:26.052Z,91.70
2023-03-16T06:43:47.510Z,91.45
2023-03-16T06:46:09.307Z,92.27
2023-03-16T06:48:31.307Z,91.98
2023-03-16T06:50:52.899Z,92.74
2023-03-16T06:53:14.512Z,92.39
2023-03-16T06:55:35.996Z,93.14
2023-03-16T06:57:57.441Z,93.45
2023-03-16T07:00:19.424Z,94.21
2023-03-16T07:02:42.556Z,95.06
2023-03-16T07:05:04.301Z,94.84
2023-03-16T07:07:27.277Z,94.28
2023-03-16T07:09:49.175Z,93.68
2023-03-16T07:12:10.885Z,93.33
2023-03-16T07:14:32.325Z,93.92
2023-03-16T07:16:53.910Z,93.51
2023-03-16T07:19:15.429Z,93.29
2023-03-16T07:21:40.754Z,92.44
2023-03-16T07:24:02.240Z,90.92
2023-03-16T07:26:23.682Z,91.21
2023-03-16T07:28:45.101Z,91.79
2023-03-16T07:31:07.357Z,91.95
2023-03-16T07:33:28.783Z,90.86
2023-03-16T07:35:50.254Z,90.56
2023-03-16T07:38:12.291Z,91.30
2023-03-16T07:40:34.805Z,90.25
2023-03-16T07:42:56.497Z,90.16
2023-03-16T07:45:18.192Z,88.14
2023-03-16T07:47:39.649Z,88.19
2023-03-16T07:50:01.429Z,87.72
2023-03-16T07:52:24.090Z,88.05
2023-03-16T07:54:45.579Z,86.88
2023-03-16T07:57:07.778Z,87.17
2023-03-16T07:59:29.357Z,87.55
2023-03-16T08:01:50.803Z,89.13
2023-03-16T08:04:12.597Z,88.29
2023-03-16T08:06:34.020Z,86.62
2023-03-16T08:08:55.534Z,86.49
2023-03-16T08:11:23.639Z,86.09
2023-03-16T08:13:46.965Z,85.84
2023-03-16T08:16:10.629Z,85.69
2023-03-16T08:18:32.262Z,85.65
2023-03-16T08:20:54.868Z,85.78
2023-03-16T08:23:17.291Z,85.33
2023-03-16T08:25:38.804Z,85.50
2023-03-16T08:28:00.258Z,86.22
2023-03-16T08:30:22.831Z,85.67
2023-03-16T08:32:44.507Z,87.19
2023-03-16T08:35:08.333Z,87.53
2023-03-16T08:37:29.782Z,87.79
2023-03-16T08:39:51.599Z,88.16
2023-03-16T08:42:15.266Z,87.24
2023-03-16T08:44:37.228Z,87.70
2023-03-16T08:47:01.578Z,87.79
2023-03-16T08:49:24.069Z,86.80
2023-03-16T08:51:46.546Z,87.21
2023-03-16T08:54:08.012Z,85.47
2023-03-16T08:56:30.535Z,86.30
2023-03-16T08:58:52.193Z,87.50
2023-03-16T09:01:17.453Z,86.82
2023-03-16T09:03:40.674Z,86.29
2023-03-16T09:06:04.909Z,86.72
2023-03-16T09:08:26.386Z,86.81
2023-03-16T09:10:47.831Z,88.06
2023-03-16T09:13:09.244Z,86.68
2023-03-16T09:15:31.525Z,87.22
2023-03-16T09:17:54.375Z,86.91
2023-03-16T09:20:22.655Z,87.19
2023-03-16T09:22:48.181Z,86.34
2023-03-16T09:25:11.291Z,85.17
2023-03-16T09:27:33.907Z,84.99
2023-03-16T09:29:56.540Z,85.52
2023-03-16T09:32:18.345Z,85.31
2023-03-16T09:34:40.281Z,85.11
2023-03-16T09:37:02.576Z,86.20
2023-03-16T09:39:24.084Z,86.18
2023-03-16T09:41:53.974Z,84.49
2023-03-16T09:44:22.675Z,83.49
2023-03-16T09:46:46.363Z,84.06
2023-03-16T09:49:10.874Z,85.62
2023-03-16T09:51:38.581Z,84.55
2023-03-16T09:54:03.058Z,83.29
2023-03-16T09:56:33.856Z,83.42
2023-03-16T09:58:56.139Z,84.76
2023-03-16T10:01:50.299Z,82.01
2023-03-16T10:05:03.144Z,81.43
2023-03-16T10:07:50.056Z,81.52
2023-03-16T10:10:11.468Z,80.44
2023-03-16T10:12:41.521Z,79.83
2023-03-16T10:15:08.492Z,79.27
2023-03-16T10:17:38.814Z,79.60
2023-03-16T10:20:08.961Z,78.05
2023-03-16T10:22:33.613Z,79.55
2023-03-16T10:25:01.460Z,81.28
2023-03-16T10:27:29.694Z,80.48
2023-03-16T10:29:51.331Z,81.98
2023-03-16T10:32:16.998Z,79.55
2023-03-16T10:34:38.541Z,79.79
2023-03-16T10:37:02.924Z,78.82
2023-03-16T10:39:24.410Z,80.72
2023-03-16T10:41:56.105Z,81.13
2023-03-16T10:44:24.622Z,80.79
2023-03-16T10:46:58.263Z,79.89
2023-03-16T10:49:49.056Z,79.03
2023-03-16T10:52:23.950Z,77.94
2023-03-16T10:54:55.123Z,74.99
2023-03-16T10:57:22.689Z,76.68
2023-03-16T10:59:49.709Z,74.53
2023-03-16T11:02:20.749Z,71.58
2023-03-16T11:04:42.733Z,72.71
2023-03-16T11:07:09.789Z,69.75
2023-03-16T11:09:33.760Z,67.99
2023-03-16T11:11:55.461Z,69.13
2023-03-16T11:14:21.056Z,71.29
2023-03-16T11:16:52.041Z,68.83
2023-03-16T11:19:34.667Z,68.37
2023-03-16T11:22:06.469Z,67.60
2023-03-16T11:24:59.323Z,62.98
2023-03-16T11:27:25.148Z,63.26
2023-03-16T11:30:05.399Z,62.73
2023-03-16T11:32:33.325Z,60.62
2023-03-16T11:34:54.848Z,59.20
2023-03-16T11:37:28.593Z,56.62
2023-03-16T11:40:15.179Z,57.22
2023-03-16T11:42:44.065Z,57.57
2023-03-16T11:45:20.539Z,56.00
2023-03-16T11:47:54.068Z,56.59
2023-03-16T11:50:25.478Z,54.81
2023-03-16T11:53:17.364Z,54.38
2023-03-16T11:56:08.037Z,56.41
2023-03-16T11:58:57.273Z,53.88
2023-03-16T12:01:43.074Z,54.45
2023-03-16T12:04:10.602Z,55.35
2023-03-16T12:06:47.019Z,54.90
2023-03-16T12:09:30.232Z,53.78
2023-03-16T12:12:23.835Z,53.51
2023-03-16T12:14:55.356Z,54.19
2023-03-16T12:17:23.263Z,54.64
2023-03-16T12:19:54.076Z,52.27
2023-03-16T12:22:24.289Z,53.79
2023-03-16T12:24:47.135Z,53.34
2023-03-16T12:27:15.881Z,53.96
2023-03-16T12:30:02.516Z,53.87
2023-03-16T12:32:38.452Z,55.13
2023-03-16T12:35:34.000Z,55.15
2023-03-16T12:38:20.866Z,53.71
2023-03-16T12:40:55.753Z,52.83
2023-03-16T12:43:37.176Z,52.16
2023-03-16T12:46:12.542Z,51.95
2023-03-16T12:48:40.237Z,52.13
2023-03-16T12:51:05.059Z,52.13
2023-03-16T12:53:48.385Z,51.82
2023-03-16T12:56:13.382Z,49.54
2023-03-16T12:58:34.931Z,49.92
2023-03-16T13:00:59.571Z,50.36
2023-03-16T13:03:23.164Z,48.11
2023-03-16T13:05:49.849Z,47.23
2023-03-16T13:08:15.872Z,48.48
2023-03-16T13:10:38.756Z,48.91
2023-03-16T13:13:25.527Z,47.39
2023-03-16T13:15:47.618Z,47.76
2023-03-16T13:18:09.099Z,46.68
2023-03-16T13:20:34.029Z,46.64
2023-03-16T13:23:18.367Z,44.46
2023-03-16T13:26:03.234Z,44.12
2023-03-16T13:28:29.964Z,45.69
2023-03-16T13:30:51.491Z,44.78
2023-03-16T13:33:20.781Z,44.28
2023-03-16T13:35:42.296Z,43.82
2023-03-16T13:38:08.059Z,43.70
2023-03-16T13:40:29.744Z,43.05
2023-03-16T13:42:53.248Z,41.34
2023-03-16T13:45:19.362Z,41.95
2023-03-16T13:47:45.336Z,41.95
2023-03-16T13:50:11.792Z,42.01
2023-03-16T13:52:35.260Z,41.87
2023-03-16T13:55:02.030Z,41.53
2023-03-16T13:57:27.108Z,41.43
2023-03-16T13:59:48.746Z,40.46
2023-03-16T14:02:17.910Z,38.83
2023-03-16T14:04:39.400Z,40.89
2023-03-16T14:07:03.750Z,39.42
2023-03-16T14:09:28.746Z,39.49
2023-03-16T14:11:50.316Z,39.20
2023-03-16T14:14:17.148Z,41.03
2023-03-16T14:16:38.697Z,39.77
2023-03-16T14:19:08.155Z,40.59
2023-03-16T14:21:31.909Z,39.00
2023-03-16T14:24:07.797Z,38.90
2023-03-16T14:26:43.338Z,38.92
2023-03-16T14:29:25.051Z,39.24
2023-03-16T14:31:46.521Z,39.36
2023-03-16T14:34:29.468Z,37.96
2023-03-16T14:36:51.219Z,38.89
2023-03-16T14:39:16.846Z,37.87
2023-03-16T14:41:39.909Z,38.65
2023-03-16T14:44:03.059Z,39.19
2023-03-16T14:46:31.002Z,37.92
2023-03-16T14:48:52.475Z,37.52
2023-03-16T14:51:15.082Z,38.03
2023-03-16T14:53:37.248Z,36.62
2023-03-16T14:55:59.467Z,37.89
2023-03-16T14:58:21.374Z,38.16
2023-03-16T15:00:52.637Z,38.01
2023-03-16T15:03:17.447Z,39.05
2023-03-16T15:05:41.856Z,38.62
2023-03-16T15:08:05.805Z,38.44
2023-03-16T15:10:35.320Z,38.41
2023-03-16T15:13:06.040Z,39.29
2023-03-16T15:15:28.650Z,39.17
2023-03-16T15:17:52.162Z,38.99
2023-03-16T15:20:15.652Z,39.08
2023-03-16T15:22:39.181Z,39.13
2023-03-16T15:25:18.077Z,39.19
2023-03-16T15:27:39.563Z,39.06
2023-03-16T15:30:01.907Z,38.92
2023-03-16T15:32:23.632Z,38.79
2023-03-16T15:34:46.665Z,39.53
2023-03-16T15:37:17.238Z,39.94
2023-03-16T15:39:38.747Z,40.97
2023-03-16T15:42:00.495Z,39.86
2023-03-16T15:44:22.855Z,40.54
2023-03-16T15:46:44.504Z,40.88
2023-03-16T15:49:06.512Z,41.15
2023-03-16T15:51:30.459Z,41.18
2023-03-16T15:53:57.773Z,40.18
2023-03-16T15:56:29.228Z,40.43
2023-03-16T15:58:50.978Z,40.63
2023-03-16T16:01:25.454Z,41.06
2023-03-16T16:03:47.247Z,41.11
2023-03-16T16:06:17.419Z,41.81
2023-03-16T16:08:38.859Z,42.74
2023-03-16T16:11:00.385Z,42.95
2023-03-16T16:13:43.537Z,42.44
2023-03-16T16:16:06.777Z,41.95
2023-03-16T16:18:31.948Z,42.21
2023-03-16T16:20:53.989Z,42.81
2023-03-16T16:23:15.488Z,43.33
2023-03-16T16:25:41.363Z,42.45
2023-03-16T16:28:03.074Z,42.83
2023-03-16T16:30:31.367Z,42.77
2023-03-16T16:32:53.387Z,42.69
2023-03-16T16:35:17.463Z,42.97
2023-03-16T16:37:38.992Z,42.60
2023-03-16T16:40:00.501Z,42.90
2023-03-16T16:42:22.031Z,43.10
2023-03-16T16:44:44.156Z,42.67
2023-03-16T16:47:18.458Z,43.16
2023-03-16T16:49:40.162Z,42.18
2023-03-16T16:52:02.262Z,42.90
2023-03-16T16:54:26.189Z,42.93
2023-03-16T16:56:50.069Z,43.36
2023-03-16T16:59:24.756Z,43.09
2023-03-16T17:01:48.160Z,43.18
2023-03-16T17:04:15.162Z,42.50
2023-03-16T17:06:36.865Z,42.93
2023-03-16T17:08:58.342Z,43.71
2023-03-16T17:11:23.917Z,42.81
2023-03-16T17:13:46.965Z,43.70
2023-03-16T17:16:16.700Z,44.18
2023-03-16T17:18:39.127Z,44.55
2023-03-16T17:21:00.632Z,44.97
2023-03-16T17:23:34.506Z,45.64
2023-03-16T17:25:58.619Z,45.17
2023-03-16T17:28:20.485Z,45.49
2023-03-16T17:30:42.687Z,45.36
2023-03-16T17:33:13.232Z,45.71
2023-03-16T17:35:34.844Z,46.23
2023-03-16T17:37:56.882Z,46.63
2023-03-16T17:40:25.437Z,46.82
2023-03-16T17:42:48.324Z,47.01
2023-03-16T17:45:17.794Z,47.95
2023-03-16T17:47:39.666Z,49.14
2023-03-16T17:50:01.380Z,49.73
2023-03-16T17:52:25.784Z,49.84
2023-03-16T17:54:48.572Z,50.16
2023-03-16T17:57:17.163Z,51.08
2023-03-16T17:59:38.789Z,51.70
2023-03-16T18:02:00.507Z,51.39
2023-03-16T18:04:24.587Z,51.86
2023-03-16T18:06:47.511Z,52.08
2023-03-16T18:09:09.704Z,52.80
2023-03-16T18:11:35.593Z,53.05
2023-03-16T18:13:57.374Z,53.11
2023-03-16T18:16:23.366Z,53.60
2023-03-16T18:18:44.890Z,53.12
2023-03-16T18:21:06.408Z,53.71
2023-03-16T18:23:30.539Z,53.53
2023-03-16T18:25:54.749Z,53.55
2023-03-16T18:28:17.266Z,53.76
2023-03-16T18:30:39.781Z,53.60
2023-03-16T18:33:03.054Z,54.34
2023-03-16T18:35:24.724Z,54.70
2023-03-16T18:37:46.404Z,54.66
2023-03-16T18:40:12.756Z,54.33
2023-03-16T18:42:34.237Z,54.41
2023-03-16T18:44:55.699Z,54.87
2023-03-16T18:47:20.141Z,54.83
2023-03-16T18:49:41.673Z,54.65
2023-03-16T18:52:04.312Z,55.24
2023-03-16T18:54:28.596Z,55.09
2023-03-16T18:56:50.183Z,55.10
2023-03-16T18:59:12.579Z,55.23
2023-03-16T19:01:38.711Z,55.30
2023-03-16T19:04:02.089Z,55.58
2023-03-16T19:06:30.958Z,56.91
2023-03-16T19:08:52.951Z,57.33
2023-03-16T19:11:14.932Z,57.39
2023-03-16T19:13:36.383Z,57.62
2023-03-16T19:15:58.096Z,57.85
2023-03-16T19:18:19.963Z,59.36
2023-03-16T19:20:43.773Z,58.79
2023-03-16T19:23:26.165Z,58.11
2023-03-16T19:25:48.217Z,58.34
2023-03-16T19:28:16.349Z,58.66
2023-03-16T19:30:38.545Z,58.59
2023-03-16T19:33:00.393Z,57.61
2023-03-16T19:35:33.178Z,57.82
2023-03-16T19:38:02.646Z,58.43
2023-03-16T19:40:25.469Z,58.04
2023-03-16T19:42:47.619Z,57.30
2023-03-16T19:45:23.393Z,57.73
2023-03-16T19:47:45.975Z,57.14
2023-03-16T19:50:19.254Z,57.25
2023-03-16T19:52:40.654Z,57.38
2023-03-16T19:55:02.245Z,56.11
2023-03-16T19:57:24.240Z,55.77
2023-03-16T19:59:56.944Z,55.96
2023-03-16T20:02:37.525Z,55.37
2023-03-16T20:04:58.995Z,55.33
2023-03-16T20:07:21.341Z,54.29
2023-03-16T20:09:43.215Z,54.05
2023-03-16T20:12:04.702Z,54.75
2023-03-16T20:14:33.456Z,54.48
2023-03-16T20:16:55.118Z,54.58
2023-03-16T20:19:16.668Z,54.45
2023-03-16T20:21:38.148Z,53.75
2023-03-16T20:23:59.609Z,53.48
2023-03-16T20:26:32.252Z,53.53
2023-03-16T20:28:53.841Z,53.94
2023-03-16T20:31:24.122Z,54.01
2023-03-16T20:33:46.347Z,53.41
2023-03-16T20:36:12.307Z,54.18
2023-03-16T20:38:33.837Z,54.38
2023-03-16T20:40:56.004Z,54.68
2023-03-16T20:43:25.326Z,54.41
2023-03-16T20:45:46.915Z,54.84
2023-03-16T20:48:15.700Z,54.45
2023-03-16T20:50:37.133Z,54.25
2023-03-16T20:52:58.582Z,54.22
2023-03-16T20:55:23.332Z,54.97
2023-03-16T20:57:44.864Z,55.35
2023-03-16T21:03:50.346Z,54.96
2023-03-16T21:06:23.486Z,55.00
2023-03-16T21:08:44.935Z,54.85
2023-03-16T21:11:21.815Z,54.52
2023-03-16T21:13:43.257Z,54.45
2023-03-16T21:16:05.367Z,54.86
2023-03-16T21:18:27.799Z,54.79
2023-03-16T21:20:50.614Z,55.15
2023-03-16T21:23:18.198Z,55.22
2023-03-16T21:25:44.955Z,55.01
2023-03-16T21:28:07.132Z,55.57
2023-03-16T21:30:37.636Z,55.29
2023-03-16T21:33:01.757Z,55.24
2023-03-16T21:35:33.021Z,55.10
2023-03-16T21:37:54.528Z,55.46
2023-03-16T21:40:22.130Z,55.40
2023-03-16T21:42:44.564Z,55.49
2023-03-16T21:45:06.625Z,55.25
2023-03-16T21:47:29.317Z,55.85
2023-03-16T21:49:51.242Z,55.79
2023-03-16T21:52:28.130Z,56.24
2023-03-16T21:54:50.966Z,56.58
2023-03-16T21:57:15.238Z,55.21
2023-03-16T21:59:36.948Z,55.35
2023-03-16T22:02:01.983Z,55.20
2023-03-16T22:04:23.944Z,54.66
2023-03-16T22:06:46.002Z,55.24
2023-03-16T22:09:15.411Z,55.27
2023-03-16T22:11:36.849Z,55.34
2023-03-16T22:13:59.449Z,54.49
2023-03-16T22:16:23.476Z,54.66
2023-03-16T22:18:47.123Z,55.19
2023-03-16T22:21:32.992Z,54.85
2023-03-16T22:23:56.372Z,55.04
2023-03-16T22:26:20.626Z,55.46
2023-03-16T22:28:42.637Z,55.51
2023-03-16T22:31:05.186Z,55.82
2023-03-16T22:33:29.935Z,55.80
2023-03-16T22:35:52.604Z,54.88
2023-03-16T22:38:15.023Z,55.38
2023-03-16T22:40:39.167Z,54.71
2023-03-16T22:43:04.059Z,54.58
2023-03-16T22:45:28.572Z,54.08
2023-03-16T22:47:51.054Z,55.57
2023-03-16T22:50:17.961Z,55.04
2023-03-16T22:52:39.488Z,54.50
2023-03-16T22:55:03.237Z,54.60
2023-03-16T22:57:25.037Z,54.40
2023-03-16T22:59:48.377Z,54.16
2023-03-16T23:02:18.315Z,54.53
2023-03-16T23:04:39.945Z,54.16
2023-03-16T23:07:02.145Z,54.41
2023-03-16T23:09:23.729Z,53.93
2023-03-16T23:11:47.217Z,53.62
2023-03-16T23:14:24.185Z,53.68
2023-03-16T23:16:46.713Z,53.95
2023-03-16T23:19:34.660Z,54.50
2023-03-16T23:21:59.718Z,54.32
2023-03-16T23:24:22.251Z,54.12
2023-03-16T23:26:44.369Z,54.53
2023-03-16T23:29:06.074Z,54.60
2023-03-16T23:31:27.743Z,54.41
2023-03-16T23:33:49.180Z,54.16
2023-03-16T23:36:19.680Z,53.71
2023-03-16T23:38:41.285Z,54.58
2023-03-16T23:41:02.765Z,54.69
2023-03-16T23:43:24.241Z,55.21
2023-03-16T23:45:46.803Z,54.67
2023-03-16T23:48:14.994Z,55.11
2023-03-16T23:50:37.725Z,55.60
2023-03-16T23:52:59.392Z,55.19
2023-03-16T23:55:21.426Z,55.12
2023-03-16T23:57:42.897Z,55.13
